createdAt,value
2023-05-10T00:00:45.158Z,8.20
2023-05-10T00:05:52.121Z,7.70
2023-05-10T00:10:58.959Z,7.30
2023-05-10T00:16:06.536Z,8.20
2023-05-10T00:21:13.573Z,8.20
2023-05-10T00:26:20.990Z,8.30
2023-05-10T00:31:29.949Z,8.30
2023-05-10T00:36:38.014Z,8.40
2023-05-10T00:41:44.929Z,8.90
2023-05-10T00:46:53.117Z,8.30
2023-05-10T00:52:00.463Z,8.10
2023-05-10T00:57:07.578Z,9.10
2023-05-10T01:02:15.398Z,9.60
2023-05-10T01:07:22.469Z,8.40
2023-05-10T01:12:29.821Z,9.50
2023-05-10T01:17:37.997Z,9.10
2023-05-10T01:23:05.852Z,9.60
2023-05-10T01:28:41.204Z,8.70
2023-05-10T01:33:54.317Z,8.50
2023-05-10T01:39:07.692Z,8.70
2023-05-10T01:44:22.695Z,8.20
2023-05-10T01:49:34.576Z,9.20
2023-05-10T01:54:47.033Z,9.30
2023-05-10T01:59:55.859Z,9.60
2023-05-10T02:05:04.606Z,8.90
2023-05-10T02:10:13.918Z,9.50
2023-05-10T02:15:25.698Z,9.30
2023-05-10T02:20:34.545Z,10.80
2023-05-10T02:25:42.448Z,10.10
2023-05-10T02:30:51.227Z,12.30
2023-05-10T02:35:58.926Z,9.20
2023-05-10T02:41:10.317Z,10.00
2023-05-10T02:46:20.245Z,10.30
2023-05-10T02:51:30.636Z,10.50
2023-05-10T02:56:42.856Z,9.60
2023-05-10T03:01:49.919Z,10.30
2023-05-10T03:06:57.027Z,10.10
2023-05-10T03:12:13.862Z,10.20
2023-05-10T03:17:31.495Z,10.30
2023-05-10T03:22:45.170Z,11.50
2023-05-10T03:27:56.506Z,10.50
2023-05-10T03:33:09.175Z,11.80
2023-05-10T03:38:19.228Z,9.60
2023-05-10T03:43:26.840Z,11.40
2023-05-10T03:48:34.509Z,10.60
2023-05-10T03:53:41.488Z,10.20
2023-05-10T03:58:48.461Z,9.20
2023-05-10T04:03:55.524Z,10.40
2023-05-10T04:09:05.249Z,10.70
2023-05-10T04:14:12.341Z,10.00
2023-05-10T04:19:19.444Z,9.20
2023-05-10T04:24:27.277Z,10.10
2023-05-10T04:29:34.293Z,10.10
2023-05-10T04:34:41.359Z,11.20
2023-05-10T04:39:48.389Z,9.00
2023-05-10T04:44:55.369Z,10.00
2023-05-10T04:50:02.720Z,9.40
2023-05-10T04:55:11.139Z,8.70
2023-05-10T05:00:19.652Z,9.40
2023-05-10T05:05:26.817Z,8.70
2023-05-10T05:10:33.763Z,8.30
2023-05-10T05:15:40.922Z,8.00
2023-05-10T05:20:47.868Z,8.20
2023-05-10T05:25:55.476Z,8.60
2023-05-10T05:31:02.493Z,7.80
2023-05-10T05:36:10.192Z,7.70
2023-05-10T05:41:17.033Z,7.50
2023-05-10T05:46:24.091Z,8.80
2023-05-10T05:51:31.122Z,7.30
2023-05-10T05:56:39.013Z,7.50
2023-05-10T06:01:46.461Z,7.20
2023-05-10T06:06:53.541Z,8.70
2023-05-10T06:12:00.731Z,7.00
2023-05-10T06:17:07.982Z,6.10
2023-05-10T06:22:15.466Z,7.00
2023-05-10T06:27:22.759Z,7.50
2023-05-10T06:32:29.815Z,5.80
2023-05-10T06:37:36.739Z,5.60
2023-05-10T06:42:43.771Z,6.10
2023-05-10T06:47:50.880Z,5.90
2023-05-10T06:52:57.840Z,5.40
2023-05-10T06:58:04.652Z,5.40
2023-05-10T07:03:11.940Z,4.70
2023-05-10T07:08:19.179Z,5.10
2023-05-10T07:13:26.211Z,4.90
2023-05-10T07:18:33.230Z,6.00
2023-05-10T07:23:40.521Z,5.90
2023-05-10T07:28:48.236Z,5.10
2023-05-10T07:33:55.215Z,5.20
2023-05-10T07:39:02.157Z,4.50
2023-05-10T07:44:09.608Z,4.10
2023-05-10T07:49:16.520Z,4.60
2023-05-10T07:54:23.396Z,4.70
2023-05-10T07:59:31.048Z,4.90
2023-05-10T08:04:38.192Z,5.10
2023-05-10T08:09:45.169Z,5.10
2023-05-10T08:14:52.050Z,4.50
2023-05-10T08:19:58.997Z,4.60
2023-05-10T08:25:06.405Z,4.30
2023-05-10T08:30:14.562Z,5.40
2023-05-10T08:35:21.549Z,5.30
2023-05-10T08:40:29.693Z,5.40
2023-05-10T08:45:39.614Z,4.70
2023-05-10T08:50:47.240Z,4.60
2023-05-10T08:55:54.445Z,4.50
2023-05-10T09:01:01.923Z,4.30
2023-05-10T09:06:09.430Z,4.30
2023-05-10T09:11:16.942Z,3.80
2023-05-10T09:16:24.465Z,3.70
2023-05-10T09:21:32.240Z,3.60
2023-05-10T09:26:47.580Z,5.20
2023-05-10T09:31:56.332Z,3.90
2023-05-10T09:37:05.729Z,3.90
2023-05-10T09:42:13.167Z,3.40
2023-05-10T09:47:22.289Z,3.70
2023-05-10T09:52:29.187Z,3.90
2023-05-10T09:57:36.186Z,4.70
2023-05-10T10:02:44.021Z,3.60
2023-05-10T10:07:51.567Z,4.40
2023-05-10T10:12:58.856Z,3.30
2023-05-10T10:18:07.332Z,3.40
2023-05-10T10:23:17.920Z,4.00
2023-05-10T10:28:37.854Z,4.40
2023-05-10T10:34:02.147Z,4.40
2023-05-10T10:39:14.409Z,4.40
2023-05-10T10:44:45.112Z,4.00
2023-05-10T10:50:04.541Z,4.40
2023-05-10T10:55:13.548Z,3.30
2023-05-10T11:00:32.046Z,3.50
2023-05-10T11:05:44.837Z,4.10
2023-05-10T11:11:11.280Z,3.90
2023-05-10T11:16:24.676Z,3.80
2023-05-10T11:21:32.543Z,3.10
2023-05-10T11:26:40.160Z,3.70
2023-05-10T11:31:48.684Z,3.50
2023-05-10T11:36:57.073Z,3.80
2023-05-10T11:42:04.213Z,3.30
2023-05-10T11:47:11.136Z,2.70
2023-05-10T11:52:20.797Z,3.40
2023-05-10T11:57:30.207Z,3.10
2023-05-10T12:02:37.457Z,2.80
2023-05-10T12:07:44.415Z,2.50
2023-05-10T12:12:54.108Z,3.00
2023-05-10T12:18:02.282Z,2.80
2023-05-10T12:23:13.523Z,2.30
2023-05-10T12:33:50.624Z,2.90
2023-05-10T12:39:05.932Z,2.60
2023-05-10T12:44:12.829Z,2.30
2023-05-10T12:49:20.774Z,2.10
2023-05-10T12:54:27.792Z,2.30
2023-05-10T12:59:36.068Z,2.10
2023-05-10T13:04:44.969Z,2.60
2023-05-10T13:09:52.011Z,2.60
2023-05-10T13:14:58.986Z,1.90
2023-05-10T13:20:06.816Z,2.30
2023-05-10T13:25:14.310Z,2.60
2023-05-10T13:30:21.668Z,1.90
2023-05-10T13:35:28.877Z,2.40
2023-05-10T13:40:37.029Z,2.10
2023-05-10T13:45:44.599Z,2.30
2023-05-10T13:50:51.471Z,2.00
2023-05-10T13:55:58.308Z,2.60
2023-05-10T14:01:05.870Z,2.10
2023-05-10T14:06:12.879Z,2.30
2023-05-10T14:11:19.729Z,1.80
2023-05-10T14:16:27.521Z,2.10
2023-05-10T14:21:34.353Z,2.90
2023-05-10T14:26:43.776Z,2.70
2023-05-10T14:31:50.919Z,2.50
2023-05-10T14:36:58.353Z,3.40
2023-05-10T14:42:05.727Z,2.30
2023-05-10T14:47:12.853Z,2.40
2023-05-10T14:52:21.383Z,3.30
2023-05-10T14:57:30.543Z,2.20
2023-05-10T15:02:37.713Z,3.30
2023-05-10T15:07:45.172Z,2.70
2023-05-10T15:12:51.998Z,3.60
2023-05-10T15:17:58.991Z,2.20
2023-05-10T15:23:06.052Z,2.20
2023-05-10T15:28:12.839Z,2.30
2023-05-10T15:33:19.973Z,1.80
2023-05-10T15:38:26.959Z,1.70
2023-05-10T15:43:33.969Z,1.90
2023-05-10T15:48:41.248Z,2.80
2023-05-10T15:54:05.425Z,2.50
2023-05-10T15:59:13.430Z,3.40
2023-05-10T16:04:21.030Z,2.10
2023-05-10T16:09:28.253Z,2.30
2023-05-10T16:14:35.693Z,2.20
2023-05-10T16:19:42.777Z,2.40
2023-05-10T16:24:49.844Z,3.20
2023-05-10T16:29:56.779Z,2.70
2023-05-10T16:35:04.248Z,2.70
2023-05-10T16:40:12.624Z,2.70
2023-05-10T16:45:19.843Z,2.80
2023-05-10T16:50:27.178Z,3.20
2023-05-10T16:55:34.281Z,2.90
2023-05-10T17:00:41.399Z,3.50
2023-05-10T17:05:48.658Z,3.00
2023-05-10T17:10:56.458Z,3.00
2023-05-10T17:16:05.046Z,3.70
2023-05-10T17:21:12.620Z,2.80
2023-05-10T17:26:19.615Z,3.10
2023-05-10T17:31:26.541Z,3.00
2023-05-10T17:36:33.540Z,3.60
2023-05-10T17:41:40.433Z,3.60
2023-05-10T17:46:50.066Z,3.40
2023-05-10T17:51:57.151Z,3.60
2023-05-10T17:57:04.271Z,3.70
2023-05-10T18:02:14.369Z,3.30
2023-05-10T18:07:23.790Z,4.00
2023-05-10T18:12:31.194Z,5.20
2023-05-10T18:17:38.113Z,4.10
2023-05-10T18:22:45.084Z,6.50
2023-05-10T18:27:52.110Z,4.30
2023-05-10T18:32:59.069Z,4.20
2023-05-10T18:38:06.078Z,4.60
2023-05-10T18:43:12.876Z,4.30
2023-05-10T18:48:19.984Z,4.80
2023-05-10T18:53:27.037Z,4.20
2023-05-10T18:58:35.676Z,4.90
2023-05-10T19:03:42.574Z,5.50
2023-05-10T19:08:49.608Z,5.10
2023-05-10T19:13:56.492Z,5.90
2023-05-10T19:19:03.581Z,8.20
2023-05-10T19:24:12.440Z,6.10
2023-05-10T19:29:19.394Z,5.80
2023-05-10T19:34:26.557Z,10.60
2023-05-10T19:39:33.739Z,8.00
2023-05-10T19:44:40.945Z,7.90
2023-05-10T19:49:47.931Z,8.00
2023-05-10T19:54:54.869Z,7.00
2023-05-10T20:00:01.980Z,7.50
2023-05-10T20:05:18.877Z,6.80
2023-05-10T20:10:27.144Z,7.40
2023-05-10T20:15:34.384Z,7.80
2023-05-10T20:20:41.404Z,7.50
2023-05-10T20:25:48.362Z,6.90
2023-05-10T20:30:56.882Z,8.60
2023-05-10T20:36:03.945Z,9.00
2023-05-10T20:41:10.835Z,6.50
2023-05-10T20:46:17.962Z,7.00
2023-05-10T20:51:25.047Z,6.70
2023-05-10T20:56:32.050Z,7.80
2023-05-10T21:01:39.021Z,6.80
2023-05-10T21:06:46.588Z,6.80
2023-05-10T21:11:53.812Z,6.80
2023-05-10T21:17:00.749Z,7.60
2023-05-10T21:22:07.815Z,7.00
2023-05-10T21:27:15.066Z,9.40
2023-05-10T21:32:23.113Z,6.80
2023-05-10T21:37:30.416Z,6.60
2023-05-10T21:42:37.384Z,6.80
2023-05-10T21:47:44.504Z,6.40
2023-05-10T21:52:51.366Z,6.10
2023-05-10T21:57:59.495Z,7.70
2023-05-10T22:03:06.551Z,6.70
2023-05-10T22:08:13.803Z,5.80
2023-05-10T22:13:20.778Z,6.60
2023-05-10T22:18:27.850Z,6.60
2023-05-10T22:23:34.822Z,6.20
2023-05-10T22:28:41.786Z,5.60
2023-05-10T22:33:48.858Z,5.30
2023-05-10T22:38:55.765Z,5.40
2023-05-10T22:44:02.849Z,5.80
2023-05-10T22:49:09.804Z,5.70
2023-05-10T22:54:16.665Z,5.40
2023-05-10T22:59:24.573Z,5.60
2023-05-10T23:04:31.601Z,6.90
2023-05-10T23:09:38.589Z,5.50
2023-05-10T23:14:46.694Z,5.80
2023-05-10T23:19:53.608Z,6.50
2023-05-10T23:25:00.779Z,5.60
2023-05-10T23:30:09.644Z,5.20
2023-05-10T23:35:16.618Z,6.00
2023-05-10T23:40:23.414Z,5.90
2023-05-10T23:45:30.441Z,6.40
2023-05-10T23:50:38.185Z,6.90
2023-05-10T23:55:45.600Z,6.40
